createdAt,value
2022-10-01T00:01:16.878Z,100207.22
2022-10-01T00:03:43.675Z,100216.22
2022-10-01T00:06:09.947Z,100216.06
2022-10-01T00:08:38.006Z,100216.22
2022-10-01T00:11:23.976Z,100210.94
2022-10-01T00:13:52.045Z,100218.94
2022-10-01T00:16:24.276Z,100220.66
2022-10-01T00:18:52.555Z,100219.25
2022-10-01T00:21:21.760Z,100228.78
2022-10-01T00:23:53.230Z,100220.31
2022-10-01T00:26:22.576Z,100219.97
2022-10-01T00:28:54.036Z,100228.28
2022-10-01T00:31:23.339Z,100226.06
2022-10-01T00:33:54.726Z,100231.50
2022-10-01T00:36:21.294Z,100231.66
2022-10-01T00:38:50.365Z,100229.13
2022-10-01T00:41:18.131Z,100221.81
2022-10-01T00:43:55.741Z,100220.81
2022-10-01T00:46:29.428Z,100217.25
2022-10-01T00:49:01.038Z,100213.50
2022-10-01T00:51:32.820Z,100213.19
2022-10-01T00:54:11.157Z,100218.59
2022-10-01T00:56:41.461Z,100219.25
2022-10-01T00:59:08.224Z,100220.97
2022-10-01T01:01:36.928Z,100219.91
2022-10-01T01:04:03.694Z,100212.41
2022-10-01T01:06:30.210Z,100202.88
2022-10-01T01:09:03.347Z,100214.28
2022-10-01T01:11:48.180Z,100203.72
2022-10-01T01:14:34.001Z,100200.31
2022-10-01T01:17:26.519Z,100191.66
2022-10-01T01:20:31.097Z,100187.22
2022-10-01T01:23:38.413Z,100178.25
2022-10-01T01:26:42.291Z,100182.84
2022-10-01T01:29:46.528Z,100183.69
2022-10-01T01:32:50.169Z,100177.22
2022-10-01T01:35:53.718Z,100171.97
2022-10-01T01:38:57.810Z,100157.69
2022-10-01T01:42:02.723Z,100155.47
2022-10-01T01:45:09.764Z,100159.03
2022-10-01T01:48:15.921Z,100163.56
2022-10-01T01:51:20.084Z,100160.00
2022-10-01T01:54:29.413Z,100155.63
2022-10-01T01:57:33.818Z,100159.34
2022-10-01T02:00:37.635Z,100160.75
2022-10-01T02:03:41.787Z,100161.75
2022-10-01T02:06:45.793Z,100159.03
2022-10-01T02:09:50.054Z,100159.88
2022-10-01T02:12:53.975Z,100153.25
2022-10-01T02:16:00.085Z,100145.94
2022-10-01T02:18:50.528Z,100143.22
2022-10-01T02:21:32.968Z,100140.97
2022-10-01T02:24:03.037Z,100127.59
2022-10-01T02:26:31.038Z,100136.22
2022-10-01T02:29:03.472Z,100134.34
2022-10-01T02:31:31.300Z,100140.06
2022-10-01T02:34:02.163Z,100142.25
2022-10-01T02:36:33.038Z,100140.56
2022-10-01T02:39:02.164Z,100143.25
2022-10-01T02:41:33.803Z,100144.97
2022-10-01T02:44:10.471Z,100149.38
2022-10-01T02:47:02.829Z,100133.72
2022-10-01T02:49:31.012Z,100135.72
2022-10-01T02:52:15.557Z,100136.06
2022-10-01T02:55:05.062Z,100129.25
2022-10-01T02:57:32.840Z,100128.22
2022-10-01T03:00:01.743Z,100123.63
2022-10-01T03:02:31.429Z,100113.78
2022-10-01T03:04:58.317Z,100113.59
2022-10-01T03:07:30.465Z,100114.44
2022-10-01T03:10:00.638Z,100108.81
2022-10-01T03:12:27.498Z,100102.19
2022-10-01T03:14:53.953Z,100101.34
2022-10-01T03:17:20.713Z,100099.09
2022-10-01T03:19:47.173Z,100097.50
2022-10-01T03:22:15.807Z,100089.34
2022-10-01T03:24:42.205Z,100090.94
2022-10-01T03:27:08.638Z,100090.47
2022-10-01T03:29:35.039Z,100081.78
2022-10-01T03:32:01.825Z,100087.47
2022-10-01T03:34:31.376Z,100082.78
2022-10-01T03:36:57.744Z,100089.09
2022-10-01T03:39:24.259Z,100086.84
2022-10-01T03:41:50.579Z,100086.47
2022-10-01T03:44:21.535Z,100082.97
2022-10-01T03:46:47.989Z,100072.56
2022-10-01T03:49:14.418Z,100068.66
2022-10-01T03:51:40.883Z,100072.00
2022-10-01T03:54:08.361Z,100060.66
2022-10-01T03:56:35.909Z,100062.81
2022-10-01T03:59:04.579Z,100066.47
2022-10-01T04:01:31.338Z,100064.59
2022-10-01T04:04:00.614Z,100061.88
2022-10-01T04:06:27.068Z,100056.63
2022-10-01T04:08:53.486Z,100059.16
2022-10-01T04:11:22.399Z,100063.56
2022-10-01T04:13:51.177Z,100057.75
2022-10-01T04:16:17.640Z,100057.75
2022-10-01T04:18:44.129Z,100054.34
2022-10-01T04:21:12.657Z,100048.56
2022-10-01T04:23:39.558Z,100045.63
2022-10-01T04:26:08.506Z,100046.31
2022-10-01T04:28:35.132Z,100057.84
2022-10-01T04:31:20.515Z,100058.00
2022-10-01T04:33:46.946Z,100064.50
2022-10-01T04:36:13.576Z,100061.78
2022-10-01T04:38:40.037Z,100071.25
2022-10-01T04:41:06.878Z,100067.69
2022-10-01T04:43:38.144Z,100061.41
2022-10-01T04:46:08.081Z,100059.53
2022-10-01T04:48:36.981Z,100051.38
2022-10-01T04:51:03.490Z,100047.13
2022-10-01T04:53:32.298Z,100047.63
2022-10-01T04:55:58.708Z,100046.56
2022-10-01T04:58:25.136Z,100038.59
2022-10-01T05:00:51.634Z,100050.50
2022-10-01T05:03:18.472Z,100050.69
2022-10-01T05:05:44.903Z,100043.19
2022-10-01T05:08:13.696Z,100047.41
2022-10-01T05:10:42.657Z,100049.75
2022-10-01T05:13:11.344Z,100050.59
2022-10-01T05:15:38.497Z,100044.50
2022-10-01T05:18:05.402Z,100035.50
2022-10-01T05:20:33.912Z,100044.75
2022-10-01T05:23:05.555Z,100028.66
2022-10-01T05:25:34.073Z,100016.53
2022-10-01T05:28:05.214Z,100021.31
2022-10-01T05:30:32.875Z,100013.16
2022-10-01T05:33:01.656Z,100018.41
2022-10-01T05:35:28.471Z,100015.69
2022-10-01T05:37:59.871Z,100011.09
2022-10-01T05:40:28.451Z,100007.03
2022-10-01T05:42:58.554Z,100007.03
2022-10-01T05:45:27.699Z,99991.38
2022-10-01T05:48:00.755Z,99996.16
2022-10-01T05:50:31.310Z,99988.38
2022-10-01T05:52:57.871Z,99986.13
2022-10-01T05:55:24.456Z,99991.38
2022-10-01T05:57:58.855Z,99999.34
2022-10-01T06:00:31.066Z,99997.47
2022-10-01T06:02:59.229Z,100001.31
2022-10-01T06:05:27.305Z,99997.75
2022-10-01T06:07:55.179Z,100008.25
2022-10-01T06:10:22.839Z,100009.94
2022-10-01T06:12:49.610Z,100011.59
2022-10-01T06:15:18.857Z,100007.84
2022-10-01T06:17:45.455Z,99999.69
2022-10-01T06:20:17.133Z,100001.84
2022-10-01T06:22:54.080Z,99999.13
2022-10-01T06:25:20.674Z,100001.66
2022-10-01T06:27:55.374Z,99990.38
2022-10-01T06:30:22.555Z,99999.84
2022-10-01T06:32:56.100Z,99994.78
2022-10-01T06:35:30.144Z,99988.56
2022-10-01T06:37:56.599Z,99981.03
2022-10-01T06:40:24.530Z,99981.25
2022-10-01T06:42:56.005Z,99978.53
2022-10-01T06:45:23.336Z,99980.66
2022-10-01T06:48:05.379Z,99985.72
2022-10-01T06:50:32.728Z,99982.59
2022-10-01T06:53:00.030Z,99978.84
2022-10-01T06:55:29.607Z,99965.25
2022-10-01T06:57:58.411Z,99962.13
2022-10-01T07:00:26.756Z,99970.28
2022-10-01T07:02:53.364Z,99966.13
2022-10-01T07:05:19.953Z,99972.44
2022-10-01T07:07:47.738Z,99962.19
2022-10-01T07:10:15.404Z,99972.88
2022-10-01T07:12:42.108Z,99975.41
2022-10-01T07:15:09.448Z,99976.25
2022-10-01T07:17:43.947Z,99985.09
2022-10-01T07:20:10.746Z,99985.72
2022-10-01T07:22:37.140Z,99984.50
2022-10-01T07:25:03.713Z,99979.72
2022-10-01T07:27:30.097Z,99976.59
2022-10-01T07:29:59.087Z,99984.38
2022-10-01T07:32:26.139Z,99982.50
2022-10-01T07:34:52.564Z,99986.69
2022-10-01T07:37:21.526Z,99988.22
2022-10-01T07:39:50.211Z,99973.34
2022-10-01T07:42:17.075Z,99991.16
2022-10-01T07:44:43.411Z,99985.97
2022-10-01T07:47:12.202Z,99965.88
2022-10-01T07:49:38.574Z,99971.09
2022-10-01T07:52:12.359Z,99964.44
2022-10-01T07:54:39.655Z,99953.53
2022-10-01T07:57:06.026Z,99958.31
2022-10-01T07:59:33.135Z,99951.19
2022-10-01T08:02:00.896Z,99965.47
2022-10-01T08:04:45.947Z,99963.38
2022-10-01T08:07:12.437Z,99964.22
2022-10-01T08:09:39.801Z,99958.75
2022-10-01T08:12:08.615Z,99960.00
2022-10-01T08:14:37.594Z,99969.88
2022-10-01T08:17:04.085Z,99968.19
2022-10-01T08:19:30.836Z,99974.94
2022-10-01T08:21:57.198Z,99978.69
2022-10-01T08:24:23.617Z,99976.81
2022-10-01T08:26:55.868Z,99974.09
2022-10-01T08:29:22.308Z,99981.00
2022-10-01T08:31:49.066Z,99994.66
2022-10-01T08:34:15.577Z,99976.63
2022-10-01T08:36:41.997Z,99969.47
2022-10-01T08:39:11.834Z,99965.72
2022-10-01T08:41:50.328Z,99971.81
2022-10-01T08:44:21.664Z,99968.03
2022-10-01T08:46:50.171Z,99966.34
2022-10-01T08:49:22.303Z,99922.94
2022-10-01T08:52:10.302Z,99892.75
2022-10-01T08:54:52.983Z,99860.47
2022-10-01T08:57:23.872Z,99867.59
2022-10-01T09:00:03.810Z,99885.25
2022-10-01T09:02:39.856Z,99917.53
2022-10-01T09:05:52.610Z,99941.25
2022-10-01T09:08:54.886Z,99945.69
2022-10-01T09:11:53.623Z,99954.75
2022-10-01T09:14:53.892Z,99954.56
2022-10-01T09:17:51.220Z,99955.38
2022-10-01T09:20:26.944Z,99946.38
2022-10-01T09:23:15.318Z,99952.28
2022-10-01T09:25:45.785Z,99960.25
2022-10-01T09:28:35.323Z,99960.91
2022-10-01T09:31:06.726Z,99988.38
2022-10-01T09:33:41.298Z,99980.66
2022-10-01T09:36:39.488Z,99978.31
2022-10-01T09:39:41.649Z,99980.88
2022-10-01T09:42:18.511Z,99979.63
2022-10-01T09:44:47.461Z,99974.41
2022-10-01T09:47:20.433Z,99967.69
2022-10-01T09:49:49.301Z,99982.44
2022-10-01T09:52:34.546Z,99987.69
2022-10-01T09:55:25.313Z,99990.00
2022-10-01T09:58:08.294Z,99985.78
2022-10-01T10:00:36.565Z,99967.13
2022-10-01T10:03:05.482Z,99978.22
2022-10-01T10:05:46.564Z,99978.44
2022-10-01T10:08:20.171Z,99972.78
2022-10-01T10:10:54.168Z,99989.81
2022-10-01T10:13:31.624Z,99989.16
2022-10-01T10:15:59.771Z,99982.25
2022-10-01T10:18:34.480Z,99976.84
2022-10-01T10:21:29.528Z,99977.69
2022-10-01T10:24:04.253Z,99972.88
2022-10-01T10:26:35.276Z,99985.94
2022-10-01T10:29:06.270Z,99992.41
2022-10-01T10:31:44.727Z,99988.66
2022-10-01T10:34:16.634Z,100007.56
2022-10-01T10:36:45.543Z,100013.06
2022-10-01T10:39:23.460Z,100011.47
2022-10-01T10:41:51.866Z,100004.13
2022-10-01T10:44:21.300Z,100007.09
2022-10-01T10:46:49.966Z,100002.94
2022-10-01T10:50:01.011Z,100011.34
2022-10-01T10:52:36.793Z,100008.44
2022-10-01T10:55:22.699Z,100018.56
2022-10-01T10:57:49.376Z,100013.94
2022-10-01T11:00:18.651Z,100017.13
2022-10-01T11:02:56.983Z,100007.25
2022-10-01T11:05:27.345Z,100000.50
2022-10-01T11:07:59.445Z,100005.34
2022-10-01T11:10:36.110Z,100008.31
2022-10-01T11:13:21.540Z,100010.84
2022-10-01T11:15:50.839Z,100014.19
2022-10-01T11:18:33.777Z,100020.31
2022-10-01T11:21:21.569Z,100017.56
2022-10-01T11:24:10.748Z,100009.16
2022-10-01T11:26:55.749Z,100014.00
2022-10-01T11:29:31.050Z,100017.56
2022-10-01T11:32:02.791Z,100017.56
2022-10-01T11:34:54.034Z,100011.88
2022-10-01T11:38:00.085Z,100019.25
2022-10-01T11:40:36.698Z,100027.00
2022-10-01T11:43:21.180Z,100020.91
2022-10-01T11:45:55.741Z,100020.91
2022-10-01T11:48:33.857Z,100013.97
2022-10-01T11:51:05.677Z,100027.19
2022-10-01T11:53:38.742Z,100022.38
2022-10-01T11:56:30.616Z,100038.78
2022-10-01T11:59:10.827Z,100034.81
2022-10-01T12:01:45.369Z,100040.91
2022-10-01T12:04:11.832Z,100040.50
2022-10-01T12:06:53.098Z,100041.34
2022-10-01T12:09:31.711Z,100033.53
2022-10-01T12:12:06.745Z,100045.97
2022-10-01T12:15:06.498Z,100036.94
2022-10-01T12:17:40.165Z,100031.00
2022-10-01T12:20:18.316Z,100033.25
2022-10-01T12:22:46.016Z,100029.44
2022-10-01T12:25:13.202Z,100034.94
2022-10-01T12:28:02.219Z,100028.44
2022-10-01T12:30:36.850Z,100028.03
2022-10-01T12:33:16.893Z,100032.31
2022-10-01T12:35:55.421Z,100038.69
2022-10-01T12:38:30.879Z,100040.84
2022-10-01T12:41:08.314Z,100043.59
2022-10-01T12:43:40.842Z,100030.31
2022-10-01T12:46:35.405Z,100029.03
2022-10-01T12:49:30.530Z,100027.94
2022-10-01T12:52:24.729Z,100026.19
2022-10-01T12:55:13.209Z,100024.25
2022-10-01T12:58:21.879Z,100017.06
2022-10-01T13:01:00.372Z,100026.53
2022-10-01T13:03:37.429Z,100035.75
2022-10-01T13:06:35.489Z,100039.78
2022-10-01T13:09:02.234Z,100043.56
2022-10-01T13:11:46.764Z,100047.38
2022-10-01T13:14:17.350Z,100042.78
2022-10-01T13:16:58.189Z,100035.25
2022-10-01T13:19:30.288Z,100048.97
2022-10-01T13:22:00.261Z,100037.19
2022-10-01T13:24:38.140Z,100049.00
2022-10-01T13:27:24.092Z,100055.53
2022-10-01T13:30:07.510Z,100063.78
2022-10-01T13:32:50.907Z,100051.34
2022-10-01T13:35:36.539Z,100070.50
2022-10-01T13:38:29.002Z,100069.69
2022-10-01T13:41:04.555Z,100061.06
2022-10-01T13:43:34.127Z,100066.69
2022-10-01T13:46:09.561Z,100059.06
2022-10-01T13:48:45.206Z,100057.69
2022-10-01T13:51:14.126Z,100067.41
2022-10-01T13:53:43.515Z,100067.81
2022-10-01T13:56:15.550Z,100059.13
2022-10-01T13:58:45.825Z,100073.31
2022-10-01T14:01:24.351Z,100069.34
2022-10-01T14:03:57.355Z,100072.31
2022-10-01T14:06:38.429Z,100067.69
2022-10-01T14:09:27.274Z,100070.66
2022-10-01T14:12:38.762Z,100073.16
2022-10-01T14:15:38.830Z,100073.81
2022-10-01T14:18:24.989Z,100086.84
2022-10-01T14:20:51.400Z,100089.56
2022-10-01T14:23:29.913Z,100094.22
2022-10-01T14:26:08.603Z,100094.97
2022-10-01T14:28:43.222Z,100098.06
2022-10-01T14:31:21.218Z,100089.81
2022-10-01T14:34:13.845Z,100086.00
2022-10-01T14:36:53.944Z,100094.25
2022-10-01T14:39:21.956Z,100099.28
2022-10-01T14:41:51.444Z,100099.31
2022-10-01T14:44:19.247Z,100099.53
2022-10-01T14:46:45.858Z,100097.59
2022-10-01T14:49:21.394Z,100095.53
2022-10-01T14:51:57.350Z,100104.16
2022-10-01T14:54:24.426Z,100110.09
2022-10-01T14:56:52.297Z,100104.63
2022-10-01T14:59:30.609Z,100100.19
2022-10-01T15:02:02.795Z,100095.13
2022-10-01T15:04:29.460Z,100099.78
2022-10-01T15:07:06.769Z,100102.50
2022-10-01T15:09:36.607Z,100098.06
2022-10-01T15:12:05.864Z,100108.19
2022-10-01T15:14:32.851Z,100100.81
2022-10-01T15:17:07.487Z,100110.75
2022-10-01T15:19:43.468Z,100109.69
2022-10-01T15:22:12.823Z,100109.94
2022-10-01T15:24:49.336Z,100108.84
2022-10-01T15:27:19.657Z,100110.75
2022-10-01T15:29:55.984Z,100114.16
2022-10-01T15:32:27.987Z,100115.63
2022-10-01T15:35:01.620Z,100120.69
2022-10-01T15:37:33.636Z,100121.16
2022-10-01T15:40:01.445Z,100123.69
2022-10-01T15:42:36.640Z,100119.69
2022-10-01T15:45:09.442Z,100126.22
2022-10-01T15:47:40.132Z,100125.66
2022-10-01T15:50:12.399Z,100134.50
2022-10-01T15:52:50.516Z,100149.09
2022-10-01T15:55:25.826Z,100138.13
2022-10-01T15:58:02.970Z,100140.69
2022-10-01T16:00:32.196Z,100147.84
2022-10-01T16:02:59.102Z,100144.88
2022-10-01T16:05:31.542Z,100150.19
2022-10-01T16:07:58.472Z,100157.13
2022-10-01T16:10:42.860Z,100159.47
2022-10-01T16:13:36.531Z,100166.41
2022-10-01T16:16:23.797Z,100170.44
2022-10-01T16:19:19.084Z,100161.81
2022-10-01T16:22:19.184Z,100159.25
2022-10-01T16:24:57.793Z,100157.56
2022-10-01T16:27:35.267Z,100166.22
2022-10-01T16:30:08.898Z,100172.13
2022-10-01T16:32:35.620Z,100171.06
2022-10-01T16:35:18.187Z,100186.66
2022-10-01T16:37:50.599Z,100187.50
2022-10-01T16:40:18.265Z,100190.84
2022-10-01T16:42:46.087Z,100192.97
2022-10-01T16:45:17.998Z,100197.38
2022-10-01T16:47:45.686Z,100208.13
2022-10-01T16:50:14.217Z,100207.28
2022-10-01T16:52:40.639Z,100216.13
2022-10-01T16:55:22.902Z,100218.66
2022-10-01T16:57:51.815Z,100216.34
2022-10-01T17:00:19.804Z,100227.91
2022-10-01T17:02:46.552Z,100233.63
2022-10-01T17:05:18.512Z,100241.84
2022-10-01T17:07:45.195Z,100245.00
2022-10-01T17:10:16.483Z,100246.03
2022-10-01T17:12:43.948Z,100235.28
2022-10-01T17:15:15.643Z,100248.13
2022-10-01T17:17:42.035Z,100250.25
2022-10-01T17:20:09.306Z,100259.50
2022-10-01T17:22:35.777Z,100266.03
2022-10-01T17:25:02.294Z,100268.75
2022-10-01T17:27:31.072Z,100271.72
2022-10-01T17:30:00.000Z,100270.03
2022-10-01T17:32:26.424Z,100267.50
2022-10-01T17:34:55.407Z,100286.88
2022-10-01T17:37:23.897Z,100291.50
2022-10-01T17:39:50.407Z,100299.88
2022-10-01T17:42:19.468Z,100308.94
2022-10-01T17:44:45.862Z,100307.47
2022-10-01T17:47:12.706Z,100313.78
2022-10-01T17:49:39.378Z,100318.41
2022-10-01T17:52:06.939Z,100324.94
2022-10-01T17:54:35.668Z,100331.91
2022-10-01T17:57:02.061Z,100340.94
2022-10-01T17:59:29.908Z,100334.84
2022-10-01T18:01:59.782Z,100328.09
2022-10-01T18:04:26.448Z,100335.69
2022-10-01T18:06:57.932Z,100342.19
2022-10-01T18:09:26.110Z,100341.34
2022-10-01T18:11:52.486Z,100354.84
2022-10-01T18:14:21.610Z,100360.31
2022-10-01T18:16:48.391Z,100360.09
2022-10-01T18:22:01.654Z,100361.16
2022-10-01T18:24:29.001Z,100365.22
2022-10-01T18:26:56.377Z,100365.44
2022-10-01T18:29:26.434Z,100371.31
2022-10-01T18:32:14.019Z,100369.88
2022-10-01T18:34:47.635Z,100385.44
2022-10-01T18:37:30.213Z,100386.09
2022-10-01T18:40:04.999Z,100386.28
2022-10-01T18:42:37.011Z,100399.97
2022-10-01T18:45:12.802Z,100417.44
2022-10-01T18:48:00.236Z,100418.09
2022-10-01T18:50:57.579Z,100422.72
2022-10-01T18:53:58.422Z,100431.13
2022-10-01T18:56:40.510Z,100433.88
2022-10-01T18:59:18.850Z,100442.94
2022-10-01T19:02:23.200Z,100442.94
2022-10-01T19:05:12.895Z,100447.38
2022-10-01T19:07:52.092Z,100453.47
2022-10-01T19:10:27.498Z,100456.22
2022-10-01T19:13:34.958Z,100463.59
2022-10-01T19:16:51.138Z,100473.91
2022-10-01T19:19:23.031Z,100474.94
2022-10-01T19:22:21.920Z,100481.50
2022-10-01T19:25:16.706Z,100489.91
2022-10-01T19:28:05.738Z,100509.69
2022-10-01T19:30:53.544Z,100509.69
2022-10-01T19:33:22.522Z,100515.16
2022-10-01T19:35:53.467Z,100512.44
2022-10-01T19:38:40.716Z,100517.09
2022-10-01T19:41:26.506Z,100517.72
2022-10-01T19:44:02.749Z,100525.28
2022-10-01T19:46:34.885Z,100532.84
2022-10-01T19:49:08.510Z,100540.22
2022-10-01T19:51:38.725Z,100544.22
2022-10-01T19:54:22.305Z,100546.47
2022-10-01T19:56:56.365Z,100555.09
2022-10-01T19:59:22.852Z,100555.09
2022-10-01T20:01:53.044Z,100554.25
2022-10-01T20:04:38.106Z,100556.13
2022-10-01T20:07:19.059Z,100571.53
2022-10-01T20:09:52.891Z,100578.03
2022-10-01T20:12:26.240Z,100574.25
2022-10-01T20:15:08.764Z,100572.56
2022-10-01T20:18:13.159Z,100570.06
2022-10-01T20:20:54.544Z,100576.22
2022-10-01T20:23:30.136Z,100586.31
2022-10-01T20:26:08.116Z,100581.03
2022-10-01T20:28:56.744Z,100577.69
2022-10-01T20:31:30.972Z,100589.72
2022-10-01T20:34:15.034Z,100584.03
2022-10-01T20:36:50.661Z,100590.56
2022-10-01T20:39:28.506Z,100586.34
2022-10-01T20:41:58.046Z,100589.09
2022-10-01T20:44:28.991Z,100595.22
2022-10-01T20:47:02.063Z,100597.31
2022-10-01T20:49:38.593Z,100595.63
2022-10-01T20:52:47.427Z,100607.88
2022-10-01T20:55:18.176Z,100619.88
2022-10-01T20:57:44.605Z,100622.81
2022-10-01T21:00:19.996Z,100613.94
2022-10-01T21:02:55.685Z,100623.19
2022-10-01T21:05:28.261Z,100610.78
2022-10-01T21:08:17.116Z,100619.16
2022-10-01T21:10:59.488Z,100626.34
2022-10-01T21:13:32.103Z,100617.72
2022-10-01T21:16:08.555Z,100623.41
2022-10-01T21:18:59.305Z,100619.63
2022-10-01T21:21:57.561Z,100623.41
2022-10-01T21:24:44.113Z,100630.31
2022-10-01T21:27:19.272Z,100649.66
2022-10-01T21:30:08.860Z,100655.31
2022-10-01T21:32:35.254Z,100650.50
2022-10-01T21:35:16.951Z,100657.00
2022-10-01T21:37:57.890Z,100660.22
2022-10-01T21:40:38.406Z,100659.56
2022-10-01T21:43:26.451Z,100654.28
2022-10-01T21:46:32.647Z,100663.34
2022-10-01T21:49:40.983Z,100669.97
2022-10-01T21:52:32.665Z,100671.84
2022-10-01T21:55:20.942Z,100675.16
2022-10-01T21:58:10.741Z,100679.13
2022-10-01T22:00:39.611Z,100681.88
2022-10-01T22:03:19.637Z,100682.59
2022-10-01T22:06:12.853Z,100683.84
2022-10-01T22:09:04.320Z,100678.41
2022-10-01T22:11:41.987Z,100678.63
2022-10-01T22:14:19.913Z,100681.16
2022-10-01T22:16:57.810Z,100691.25
2022-10-01T22:19:38.787Z,100689.38
2022-10-01T22:22:11.088Z,100686.84
2022-10-01T22:24:49.231Z,100692.31
2022-10-01T22:27:23.967Z,100694.22
2022-10-01T22:30:06.137Z,100697.13
2022-10-01T22:32:45.023Z,100701.97
2022-10-01T22:35:19.819Z,100713.78
2022-10-01T22:37:55.235Z,100709.97
2022-10-01T22:40:27.082Z,100700.25
2022-10-01T22:43:11.137Z,100701.97
2022-10-01T22:45:49.705Z,100710.91
2022-10-01T22:48:46.101Z,100703.38
2022-10-01T22:51:21.649Z,100705.03
2022-10-01T22:54:09.195Z,100707.31
2022-10-01T22:56:53.098Z,100710.91
2022-10-01T22:59:35.470Z,100706.97
2022-10-01T23:02:28.221Z,100708.00
2022-10-01T23:05:03.770Z,100725.66
2022-10-01T23:07:45.130Z,100735.97
2022-10-01T23:10:23.465Z,100737.66
2022-10-01T23:13:16.090Z,100735.78
2022-10-01T23:15:58.219Z,100738.50
2022-10-01T23:18:48.647Z,100748.41
2022-10-01T23:21:32.598Z,100751.03
2022-10-01T23:24:32.284Z,100751.03
2022-10-01T23:27:10.013Z,100763.28
2022-10-01T23:29:51.147Z,100774.47
2022-10-01T23:32:35.084Z,100789.19
2022-10-01T23:35:35.500Z,100783.50
2022-10-01T23:38:37.253Z,100783.50
2022-10-01T23:41:14.138Z,100789.66
2022-10-01T23:43:46.817Z,100787.53
2022-10-01T23:46:18.915Z,100785.88
2022-10-01T23:48:53.078Z,100798.72
2022-10-01T23:51:35.993Z,100796.59
2022-10-01T23:54:22.102Z,100803.78
2022-10-01T23:57:18.723Z,100802.09
2022-10-01T23:59:55.266Z,100809.44
